sensor_id;sensor_type;location;lat;lon;timestamp;pressure;altitude;pressure_sealevel;temperature;humidity
70437;BME280;57877;39.750;-104.894;2023-05-23T00:00:14;83531.98;;;26.05;12.88
70437;BME280;57877;39.750;-104.894;2023-05-23T00:02:39;83529.79;;;26.01;13.03
70437;BME280;57877;39.750;-104.894;2023-05-23T00:05:05;83531.84;;;25.47;13.59
70437;BME280;57877;39.750;-104.894;2023-05-23T00:07:29;83532.40;;;25.32;13.88
70437;BME280;57877;39.750;-104.894;2023-05-23T00:09:54;83537.34;;;25.48;14.07
70437;BME280;57877;39.750;-104.894;2023-05-23T00:12:20;83537.23;;;25.50;13.84
70437;BME280;57877;39.750;-104.894;2023-05-23T00:14:44;83536.88;;;25.21;13.98
70437;BME280;57877;39.750;-104.894;2023-05-23T00:17:09;83536.84;;;24.86;14.12
70437;BME280;57877;39.750;-104.894;2023-05-23T00:19:34;83538.25;;;25.11;14.12
70437;BME280;57877;39.750;-104.894;2023-05-23T00:21:59;83536.69;;;24.84;14.05
70437;BME280;57877;39.750;-104.894;2023-05-23T00:24:24;83536.02;;;25.20;14.24
70437;BME280;57877;39.750;-104.894;2023-05-23T00:26:50;83538.39;;;24.94;14.16
70437;BME280;57877;39.750;-104.894;2023-05-23T00:29:14;83537.15;;;25.27;14.11
70437;BME280;57877;39.750;-104.894;2023-05-23T00:31:39;83535.14;;;24.93;14.24
70437;BME280;57877;39.750;-104.894;2023-05-23T00:34:04;83538.01;;;25.14;14.61
70437;BME280;57877;39.750;-104.894;2023-05-23T00:36:30;83538.36;;;24.99;14.74
70437;BME280;57877;39.750;-104.894;2023-05-23T00:38:56;83539.36;;;25.18;14.56
70437;BME280;57877;39.750;-104.894;2023-05-23T00:41:22;83543.44;;;24.98;14.23
70437;BME280;57877;39.750;-104.894;2023-05-23T00:43:48;83539.39;;;25.04;14.36
70437;BME280;57877;39.750;-104.894;2023-05-23T00:46:14;83539.78;;;24.88;14.26
70437;BME280;57877;39.750;-104.894;2023-05-23T00:48:40;83538.36;;;24.38;14.61
70437;BME280;57877;39.750;-104.894;2023-05-23T00:51:06;83536.49;;;24.38;14.55
70437;BME280;57877;39.750;-104.894;2023-05-23T00:53:33;83540.44;;;24.46;14.53
70437;BME280;57877;39.750;-104.894;2023-05-23T00:55:58;83542.15;;;24.72;14.71
70437;BME280;57877;39.750;-104.894;2023-05-23T00:58:24;83542.01;;;24.46;14.75
70437;BME280;57877;39.750;-104.894;2023-05-23T01:00:50;83543.31;;;24.62;14.42
70437;BME280;57877;39.750;-104.894;2023-05-23T01:03:16;83544.05;;;24.93;14.15
70437;BME280;57877;39.750;-104.894;2023-05-23T01:05:42;83544.92;;;25.18;14.10
70437;BME280;57877;39.750;-104.894;2023-05-23T01:08:08;83544.32;;;24.89;14.10
70437;BME280;57877;39.750;-104.894;2023-05-23T01:10:34;83543.39;;;24.92;13.92
70437;BME280;57877;39.750;-104.894;2023-05-23T01:13:11;83542.53;;;24.87;14.18
70437;BME280;57877;39.750;-104.894;2023-05-23T01:15:31;83545.37;;;24.88;14.31
70437;BME280;57877;39.750;-104.894;2023-05-23T01:18:00;83546.40;;;24.63;14.33
70437;BME280;57877;39.750;-104.894;2023-05-23T01:20:21;83549.45;;;24.37;14.58
70437;BME280;57877;39.750;-104.894;2023-05-23T01:22:58;83553.07;;;24.22;14.77
70437;BME280;57877;39.750;-104.894;2023-05-23T01:25:19;83556.09;;;24.58;14.87
70437;BME280;57877;39.750;-104.894;2023-05-23T01:27:43;83560.15;;;23.94;15.68
70437;BME280;57877;39.750;-104.894;2023-05-23T01:30:04;83565.75;;;24.24;15.61
70437;BME280;57877;39.750;-104.894;2023-05-23T01:32:28;83571.03;;;24.33;15.50
70437;BME280;57877;39.750;-104.894;2023-05-23T01:34:54;83573.42;;;24.42;15.54
70437;BME280;57877;39.750;-104.894;2023-05-23T01:37:19;83571.46;;;24.24;15.91
70437;BME280;57877;39.750;-104.894;2023-05-23T01:39:45;83569.87;;;24.68;15.92
70437;BME280;57877;39.750;-104.894;2023-05-23T01:42:11;83567.32;;;23.95;15.96
70437;BME280;57877;39.750;-104.894;2023-05-23T01:44:36;83567.97;;;24.47;15.77
70437;BME280;57877;39.750;-104.894;2023-05-23T01:47:03;83566.15;;;24.54;15.87
70437;BME280;57877;39.750;-104.894;2023-05-23T01:49:27;83567.97;;;24.12;16.03
70437;BME280;57877;39.750;-104.894;2023-05-23T01:51:53;83570.07;;;24.37;16.11
70437;BME280;57877;39.750;-104.894;2023-05-23T01:54:19;83569.68;;;24.54;16.04
70437;BME280;57877;39.750;-104.894;2023-05-23T01:56:45;83572.69;;;24.70;15.96
70437;BME280;57877;39.750;-104.894;2023-05-23T01:59:11;83575.64;;;24.41;15.98
70437;BME280;57877;39.750;-104.894;2023-05-23T02:01:37;83577.78;;;24.18;16.19
70437;BME280;57877;39.750;-104.894;2023-05-23T02:04:01;83578.28;;;23.93;16.30
70437;BME280;57877;39.750;-104.894;2023-05-23T02:06:27;83580.01;;;23.87;16.47
70437;BME280;57877;39.750;-104.894;2023-05-23T02:08:53;83578.57;;;23.87;16.40
70437;BME280;57877;39.750;-104.894;2023-05-23T02:11:19;83579.80;;;23.88;16.57
70437;BME280;57877;39.750;-104.894;2023-05-23T02:13:45;83583.73;;;23.59;17.09
70437;BME280;57877;39.750;-104.894;2023-05-23T02:16:11;83582.36;;;23.70;17.26
70437;BME280;57877;39.750;-104.894;2023-05-23T02:18:37;83580.34;;;23.69;17.42
70437;BME280;57877;39.750;-104.894;2023-05-23T02:21:03;83579.42;;;23.34;17.52
70437;BME280;57877;39.750;-104.894;2023-05-23T02:23:29;83579.87;;;23.07;17.48
70437;BME280;57877;39.750;-104.894;2023-05-23T02:25:55;83580.20;;;23.43;17.67
70437;BME280;57877;39.750;-104.894;2023-05-23T02:28:21;83579.23;;;23.10;17.74
70437;BME280;57877;39.750;-104.894;2023-05-23T02:30:47;83576.57;;;23.21;18.01
70437;BME280;57877;39.750;-104.894;2023-05-23T02:33:13;83574.86;;;23.20;18.01
70437;BME280;57877;39.750;-104.894;2023-05-23T02:35:38;83574.18;;;22.89;18.07
70437;BME280;57877;39.750;-104.894;2023-05-23T02:38:04;83574.86;;;22.88;18.08
70437;BME280;57877;39.750;-104.894;2023-05-23T02:40:30;83574.69;;;22.68;18.32
70437;BME280;57877;39.750;-104.894;2023-05-23T02:42:56;83574.84;;;23.03;18.45
70437;BME280;57877;39.750;-104.894;2023-05-23T02:45:22;83574.55;;;23.05;18.62
70437;BME280;57877;39.750;-104.894;2023-05-23T02:47:48;83575.14;;;22.28;18.74
70437;BME280;57877;39.750;-104.894;2023-05-23T02:50:14;83575.83;;;22.65;18.72
70437;BME280;57877;39.750;-104.894;2023-05-23T02:52:39;83577.92;;;22.22;18.76
70437;BME280;57877;39.750;-104.894;2023-05-23T02:55:05;83577.50;;;22.19;19.15
70437;BME280;57877;39.750;-104.894;2023-05-23T02:57:29;83577.30;;;22.14;19.34
70437;BME280;57877;39.750;-104.894;2023-05-23T02:59:56;83574.17;;;22.50;19.26
70437;BME280;57877;39.750;-104.894;2023-05-23T03:02:20;83581.28;;;22.13;19.47
70437;BME280;57877;39.750;-104.894;2023-05-23T03:04:46;83587.31;;;22.18;19.66
70437;BME280;57877;39.750;-104.894;2023-05-23T03:07:12;83588.53;;;22.21;19.89
70437;BME280;57877;39.750;-104.894;2023-05-23T03:09:38;83586.17;;;21.98;19.65
70437;BME280;57877;39.750;-104.894;2023-05-23T03:12:05;83587.74;;;22.46;19.69
70437;BME280;57877;39.750;-104.894;2023-05-23T03:14:30;83586.73;;;22.61;19.95
70437;BME280;57877;39.750;-104.894;2023-05-23T03:16:56;83586.66;;;22.36;20.07
70437;BME280;57877;39.750;-104.894;2023-05-23T03:19:22;83590.02;;;22.30;20.20
70437;BME280;57877;39.750;-104.894;2023-05-23T03:21:50;83591.21;;;22.19;20.40
70437;BME280;57877;39.750;-104.894;2023-05-23T03:24:13;83594.19;;;21.78;20.45
70437;BME280;57877;39.750;-104.894;2023-05-23T03:26:38;83593.84;;;21.51;21.03
70437;BME280;57877;39.750;-104.894;2023-05-23T03:29:04;83596.81;;;21.43;20.87
70437;BME280;57877;39.750;-104.894;2023-05-23T03:31:30;83599.85;;;21.87;20.85
70437;BME280;57877;39.750;-104.894;2023-05-23T03:33:56;83601.16;;;21.56;21.36
70437;BME280;57877;39.750;-104.894;2023-05-23T03:36:22;83603.12;;;21.37;21.85
70437;BME280;57877;39.750;-104.894;2023-05-23T03:38:47;83603.54;;;21.03;22.63
70437;BME280;57877;39.750;-104.894;2023-05-23T03:41:13;83606.18;;;21.08;23.71
70437;BME280;57877;39.750;-104.894;2023-05-23T03:43:38;83608.80;;;20.39;25.18
70437;BME280;57877;39.750;-104.894;2023-05-23T03:46:05;83609.62;;;20.67;25.26
70437;BME280;57877;39.750;-104.894;2023-05-23T03:48:30;83610.00;;;20.86;25.57
70437;BME280;57877;39.750;-104.894;2023-05-23T03:50:54;83612.84;;;20.38;26.58
70437;BME280;57877;39.750;-104.894;2023-05-23T03:53:21;83615.22;;;21.03;26.05
70437;BME280;57877;39.750;-104.894;2023-05-23T03:55:47;83614.79;;;20.59;26.60
70437;BME280;57877;39.750;-104.894;2023-05-23T03:58:12;83614.21;;;20.63;26.79
70437;BME280;57877;39.750;-104.894;2023-05-23T04:00:38;83614.36;;;20.67;27.55
70437;BME280;57877;39.750;-104.894;2023-05-23T04:03:03;83611.71;;;20.28;27.63
70437;BME280;57877;39.750;-104.894;2023-05-23T04:05:28;83611.84;;;20.50;28.09
70437;BME280;57877;39.750;-104.894;2023-05-23T04:07:55;83612.18;;;20.69;27.87
70437;BME280;57877;39.750;-104.894;2023-05-23T04:10:21;83613.86;;;20.18;28.44
70437;BME280;57877;39.750;-104.894;2023-05-23T04:12:47;83614.78;;;20.59;28.49
70437;BME280;57877;39.750;-104.894;2023-05-23T04:15:13;83619.46;;;20.63;28.43
70437;BME280;57877;39.750;-104.894;2023-05-23T04:17:39;83620.82;;;20.63;28.66
70437;BME280;57877;39.750;-104.894;2023-05-23T04:20:07;83618.21;;;20.92;28.43
70437;BME280;57877;39.750;-104.894;2023-05-23T04:22:31;83622.06;;;20.67;27.66
70437;BME280;57877;39.750;-104.894;2023-05-23T04:24:57;83620.69;;;21.00;27.88
70437;BME280;57877;39.750;-104.894;2023-05-23T04:27:23;83620.15;;;21.00;27.39
70437;BME280;57877;39.750;-104.894;2023-05-23T04:29:49;83621.70;;;20.90;27.48
70437;BME280;57877;39.750;-104.894;2023-05-23T04:32:15;83621.07;;;20.64;27.33
70437;BME280;57877;39.750;-104.894;2023-05-23T04:34:41;83621.77;;;20.45;27.63
70437;BME280;57877;39.750;-104.894;2023-05-23T04:37:07;83622.01;;;20.72;27.93
70437;BME280;57877;39.750;-104.894;2023-05-23T04:39:33;83620.19;;;20.49;28.40
70437;BME280;57877;39.750;-104.894;2023-05-23T04:41:59;83618.19;;;20.52;28.53
70437;BME280;57877;39.750;-104.894;2023-05-23T04:44:25;83618.40;;;20.34;28.84
70437;BME280;57877;39.750;-104.894;2023-05-23T04:46:51;83615.19;;;19.75;30.39
70437;BME280;57877;39.750;-104.894;2023-05-23T04:49:17;83612.38;;;20.10;30.05
70437;BME280;57877;39.750;-104.894;2023-05-23T04:51:42;83608.75;;;20.11;30.23
70437;BME280;57877;39.750;-104.894;2023-05-23T04:54:07;83605.56;;;19.54;31.15
70437;BME280;57877;39.750;-104.894;2023-05-23T04:56:33;83605.29;;;19.21;31.65
70437;BME280;57877;39.750;-104.894;2023-05-23T04:58:58;83608.66;;;19.81;31.66
70437;BME280;57877;39.750;-104.894;2023-05-23T05:01:23;83609.25;;;19.51;31.57
70437;BME280;57877;39.750;-104.894;2023-05-23T05:03:49;83611.94;;;19.80;31.22
70437;BME280;57877;39.750;-104.894;2023-05-23T05:06:15;83609.54;;;19.85;31.48
70437;BME280;57877;39.750;-104.894;2023-05-23T05:08:41;83609.95;;;19.44;31.75
70437;BME280;57877;39.750;-104.894;2023-05-23T05:11:09;83608.66;;;19.69;31.71
70437;BME280;57877;39.750;-104.894;2023-05-23T05:13:33;83606.27;;;19.40;31.65
70437;BME280;57877;39.750;-104.894;2023-05-23T05:15:59;83608.61;;;19.95;31.31
70437;BME280;57877;39.750;-104.894;2023-05-23T05:18:26;83609.35;;;19.39;31.15
70437;BME280;57877;39.750;-104.894;2023-05-23T05:20:51;83608.55;;;19.85;30.74
70437;BME280;57877;39.750;-104.894;2023-05-23T05:23:17;83605.24;;;19.57;30.83
70437;BME280;57877;39.750;-104.894;2023-05-23T05:25:42;83608.72;;;19.58;30.34
70437;BME280;57877;39.750;-104.894;2023-05-23T05:28:08;83610.28;;;19.96;29.83
70437;BME280;57877;39.750;-104.894;2023-05-23T05:30:34;83614.95;;;19.27;29.21
70437;BME280;57877;39.750;-104.894;2023-05-23T05:32:59;83619.17;;;18.90;28.97
70437;BME280;57877;39.750;-104.894;2023-05-23T05:35:25;83623.64;;;18.97;27.96
70437;BME280;57877;39.750;-104.894;2023-05-23T05:37:51;83623.93;;;18.65;27.99
70437;BME280;57877;39.750;-104.894;2023-05-23T05:40:17;83619.06;;;18.92;27.59
70437;BME280;57877;39.750;-104.894;2023-05-23T05:42:43;83619.55;;;18.95;27.42
70437;BME280;57877;39.750;-104.894;2023-05-23T05:45:10;83622.26;;;18.94;27.44
70437;BME280;57877;39.750;-104.894;2023-05-23T05:47:35;83623.06;;;19.13;27.16
70437;BME280;57877;39.750;-104.894;2023-05-23T05:50:00;83627.11;;;18.76;27.38
70437;BME280;57877;39.750;-104.894;2023-05-23T05:52:25;83626.65;;;18.64;27.40
70437;BME280;57877;39.750;-104.894;2023-05-23T05:54:50;83630.94;;;18.87;27.24
70437;BME280;57877;39.750;-104.894;2023-05-23T05:57:16;83631.45;;;18.89;27.06
70437;BME280;57877;39.750;-104.894;2023-05-23T05:59:42;83629.13;;;18.62;27.35
70437;BME280;57877;39.750;-104.894;2023-05-23T06:02:09;83631.53;;;19.01;27.05
70437;BME280;57877;39.750;-104.894;2023-05-23T06:04:34;83631.91;;;19.01;27.04
70437;BME280;57877;39.750;-104.894;2023-05-23T06:07:00;83635.31;;;18.96;26.97
70437;BME280;57877;39.750;-104.894;2023-05-23T06:09:25;83640.03;;;18.95;27.08
70437;BME280;57877;39.750;-104.894;2023-05-23T06:11:51;83641.87;;;18.73;27.12
70437;BME280;57877;39.750;-104.894;2023-05-23T06:14:17;83641.20;;;18.54;27.39
70437;BME280;57877;39.750;-104.894;2023-05-23T06:16:44;83642.51;;;18.85;27.22
70437;BME280;57877;39.750;-104.894;2023-05-23T06:19:10;83643.02;;;18.87;27.06
70437;BME280;57877;39.750;-104.894;2023-05-23T06:21:35;83645.83;;;18.22;27.73
70437;BME280;57877;39.750;-104.894;2023-05-23T06:24:01;83649.24;;;18.26;27.65
70437;BME280;57877;39.750;-104.894;2023-05-23T06:26:27;83649.47;;;18.50;27.37
70437;BME280;57877;39.750;-104.894;2023-05-23T06:28:53;83648.66;;;18.35;27.43
70437;BME280;57877;39.750;-104.894;2023-05-23T06:31:18;83650.76;;;18.57;27.40
70437;BME280;57877;39.750;-104.894;2023-05-23T06:33:43;83651.72;;;18.28;27.58
70437;BME280;57877;39.750;-104.894;2023-05-23T06:36:09;83654.41;;;18.37;27.72
70437;BME280;57877;39.750;-104.894;2023-05-23T06:38:34;83653.05;;;18.15;27.46
70437;BME280;57877;39.750;-104.894;2023-05-23T06:40:59;83652.99;;;18.12;27.52
70437;BME280;57877;39.750;-104.894;2023-05-23T06:43:25;83651.96;;;18.13;27.41
70437;BME280;57877;39.750;-104.894;2023-05-23T06:45:50;83653.93;;;17.98;27.50
70437;BME280;57877;39.750;-104.894;2023-05-23T06:48:16;83655.18;;;17.80;27.78
70437;BME280;57877;39.750;-104.894;2023-05-23T06:50:42;83650.78;;;18.09;27.77
70437;BME280;57877;39.750;-104.894;2023-05-23T06:53:08;83647.96;;;17.72;27.86
70437;BME280;57877;39.750;-104.894;2023-05-23T06:55:34;83642.85;;;18.03;27.76
70437;BME280;57877;39.750;-104.894;2023-05-23T06:57:59;83642.03;;;18.35;27.69
70437;BME280;57877;39.750;-104.894;2023-05-23T07:00:25;83642.92;;;17.99;27.79
70437;BME280;57877;39.750;-104.894;2023-05-23T07:02:50;83642.50;;;18.01;27.68
70437;BME280;57877;39.750;-104.894;2023-05-23T07:05:15;83642.48;;;17.61;27.43
70437;BME280;57877;39.750;-104.894;2023-05-23T07:07:41;83642.19;;;17.49;27.70
70437;BME280;57877;39.750;-104.894;2023-05-23T07:10:06;83642.64;;;17.66;27.52
70437;BME280;57877;39.750;-104.894;2023-05-23T07:12:30;83641.87;;;17.59;27.59
70437;BME280;57877;39.750;-104.894;2023-05-23T07:14:56;83639.18;;;17.41;27.72
70437;BME280;57877;39.750;-104.894;2023-05-23T07:17:21;83640.10;;;17.55;27.50
70437;BME280;57877;39.750;-104.894;2023-05-23T07:19:47;83642.27;;;17.43;27.32
70437;BME280;57877;39.750;-104.894;2023-05-23T07:22:13;83643.04;;;17.56;27.23
70437;BME280;57877;39.750;-104.894;2023-05-23T07:24:39;83641.10;;;17.57;27.28
70437;BME280;57877;39.750;-104.894;2023-05-23T07:27:05;83640.79;;;17.65;27.39
70437;BME280;57877;39.750;-104.894;2023-05-23T07:29:31;83642.32;;;17.06;27.53
70437;BME280;57877;39.750;-104.894;2023-05-23T07:31:57;83643.11;;;17.50;27.29
70437;BME280;57877;39.750;-104.894;2023-05-23T07:34:23;83644.00;;;17.23;27.23
70437;BME280;57877;39.750;-104.894;2023-05-23T07:36:49;83646.06;;;17.31;27.23
70437;BME280;57877;39.750;-104.894;2023-05-23T07:39:15;83650.07;;;17.10;27.35
70437;BME280;57877;39.750;-104.894;2023-05-23T07:41:41;83647.93;;;17.32;27.50
70437;BME280;57877;39.750;-104.894;2023-05-23T07:44:07;83645.51;;;17.21;27.51
70437;BME280;57877;39.750;-104.894;2023-05-23T07:46:34;83645.76;;;17.06;27.47
70437;BME280;57877;39.750;-104.894;2023-05-23T07:48:59;83643.40;;;16.61;27.88
70437;BME280;57877;39.750;-104.894;2023-05-23T07:51:25;83641.37;;;16.72;28.04
70437;BME280;57877;39.750;-104.894;2023-05-23T07:53:51;83643.25;;;16.89;28.14
70437;BME280;57877;39.750;-104.894;2023-05-23T07:56:18;83645.00;;;16.82;28.37
70437;BME280;57877;39.750;-104.894;2023-05-23T07:58:43;83642.53;;;16.38;28.65
70437;BME280;57877;39.750;-104.894;2023-05-23T08:01:09;83642.40;;;16.41;28.87
70437;BME280;57877;39.750;-104.894;2023-05-23T08:03:35;83644.79;;;16.77;29.22
70437;BME280;57877;39.750;-104.894;2023-05-23T08:06:02;83646.01;;;16.19;29.47
70437;BME280;57877;39.750;-104.894;2023-05-23T08:08:27;83647.06;;;16.22;29.48
70437;BME280;57877;39.750;-104.894;2023-05-23T08:10:53;83646.27;;;16.55;29.37
70437;BME280;57877;39.750;-104.894;2023-05-23T08:13:19;83645.45;;;16.57;29.47
70437;BME280;57877;39.750;-104.894;2023-05-23T08:15:45;83649.33;;;16.42;29.41
70437;BME280;57877;39.750;-104.894;2023-05-23T08:18:11;83648.77;;;16.64;29.24
70437;BME280;57877;39.750;-104.894;2023-05-23T08:20:37;83647.90;;;16.80;29.27
70437;BME280;57877;39.750;-104.894;2023-05-23T08:23:03;83650.07;;;16.67;29.28
70437;BME280;57877;39.750;-104.894;2023-05-23T08:25:31;83646.49;;;16.54;29.48
70437;BME280;57877;39.750;-104.894;2023-05-23T08:27:58;83645.21;;;16.24;29.87
70437;BME280;57877;39.750;-104.894;2023-05-23T08:30:22;83644.04;;;16.43;29.82
70437;BME280;57877;39.750;-104.894;2023-05-23T08:32:47;83642.93;;;16.45;29.85
70437;BME280;57877;39.750;-104.894;2023-05-23T08:35:13;83642.71;;;16.31;30.05
70437;BME280;57877;39.750;-104.894;2023-05-23T08:37:47;83644.30;;;16.49;29.99
70437;BME280;57877;39.750;-104.894;2023-05-23T08:40:07;83641.27;;;16.24;30.21
70437;BME280;57877;39.750;-104.894;2023-05-23T08:42:30;83641.37;;;15.99;30.36
70437;BME280;57877;39.750;-104.894;2023-05-23T08:44:56;83638.51;;;16.21;30.10
70437;BME280;57877;39.750;-104.894;2023-05-23T08:47:22;83638.40;;;16.04;30.01
70437;BME280;57877;39.750;-104.894;2023-05-23T08:49:49;83638.33;;;16.24;29.96
70437;BME280;57877;39.750;-104.894;2023-05-23T08:52:16;83639.53;;;16.46;30.06
70437;BME280;57877;39.750;-104.894;2023-05-23T08:54:42;83641.50;;;15.86;30.30
70437;BME280;57877;39.750;-104.894;2023-05-23T08:57:06;83639.10;;;15.89;30.74
70437;BME280;57877;39.750;-104.894;2023-05-23T08:59:38;83642.83;;;16.39;30.51
70437;BME280;57877;39.750;-104.894;2023-05-23T09:01:57;83639.33;;;15.92;30.65
70437;BME280;57877;39.750;-104.894;2023-05-23T09:04:21;83642.04;;;16.10;30.57
70437;BME280;57877;39.750;-104.894;2023-05-23T09:06:47;83640.26;;;15.70;30.77
70437;BME280;57877;39.750;-104.894;2023-05-23T09:09:14;83639.89;;;15.82;30.42
70437;BME280;57877;39.750;-104.894;2023-05-23T09:11:41;83641.94;;;15.66;30.50
70437;BME280;57877;39.750;-104.894;2023-05-23T09:14:05;83640.89;;;15.53;30.89
70437;BME280;57877;39.750;-104.894;2023-05-23T09:16:32;83643.79;;;15.61;30.61
70437;BME280;57877;39.750;-104.894;2023-05-23T09:18:58;83644.07;;;15.78;30.28
70437;BME280;57877;39.750;-104.894;2023-05-23T09:21:24;83641.30;;;15.90;30.24
70437;BME280;57877;39.750;-104.894;2023-05-23T09:23:49;83638.40;;;15.72;30.41
70437;BME280;57877;39.750;-104.894;2023-05-23T09:26:15;83636.18;;;15.69;30.46
70437;BME280;57877;39.750;-104.894;2023-05-23T09:28:43;83634.64;;;15.52;30.45
70437;BME280;57877;39.750;-104.894;2023-05-23T09:31:07;83638.38;;;15.81;30.44
70437;BME280;57877;39.750;-104.894;2023-05-23T09:33:41;83640.79;;;15.92;30.38
70437;BME280;57877;39.750;-104.894;2023-05-23T09:35:59;83641.33;;;16.01;30.49
70437;BME280;57877;39.750;-104.894;2023-05-23T09:38:27;83645.08;;;15.25;30.80
70437;BME280;57877;39.750;-104.894;2023-05-23T09:40:54;83646.28;;;15.44;30.77
70437;BME280;57877;39.750;-104.894;2023-05-23T09:43:17;83650.07;;;15.62;30.43
70437;BME280;57877;39.750;-104.894;2023-05-23T09:45:43;83648.52;;;15.88;30.48
70437;BME280;57877;39.750;-104.894;2023-05-23T09:48:12;83646.80;;;15.33;30.58
70437;BME280;57877;39.750;-104.894;2023-05-23T09:50:34;83645.00;;;15.35;30.53
70437;BME280;57877;39.750;-104.894;2023-05-23T09:53:00;83645.06;;;15.26;30.69
70437;BME280;57877;39.750;-104.894;2023-05-23T09:55:26;83646.43;;;15.37;31.10
70437;BME280;57877;39.750;-104.894;2023-05-23T09:57:53;83646.02;;;15.18;31.53
70437;BME280;57877;39.750;-104.894;2023-05-23T10:00:19;83643.87;;;15.09;31.76
70437;BME280;57877;39.750;-104.894;2023-05-23T10:05:19;83646.66;;;15.19;32.04
70437;BME280;57877;39.750;-104.894;2023-05-23T10:07:36;83648.15;;;15.02;32.44
70437;BME280;57877;39.750;-104.894;2023-05-23T10:10:03;83651.64;;;15.11;32.35
70437;BME280;57877;39.750;-104.894;2023-05-23T10:12:37;83648.38;;;14.66;32.98
70437;BME280;57877;39.750;-104.894;2023-05-23T10:14:56;83646.88;;;14.08;33.47
70437;BME280;57877;39.750;-104.894;2023-05-23T10:17:20;83649.69;;;14.72;33.31
70437;BME280;57877;39.750;-104.894;2023-05-23T10:19:49;83647.28;;;14.64;33.06
70437;BME280;57877;39.750;-104.894;2023-05-23T10:22:12;83649.60;;;14.56;33.24
70437;BME280;57877;39.750;-104.894;2023-05-23T10:24:37;83651.23;;;14.60;33.17
70437;BME280;57877;39.750;-104.894;2023-05-23T10:27:03;83650.44;;;14.88;32.90
70437;BME280;57877;39.750;-104.894;2023-05-23T10:29:28;83647.53;;;14.31;33.42
70437;BME280;57877;39.750;-104.894;2023-05-23T10:31:54;83647.69;;;14.68;32.98
70437;BME280;57877;39.750;-104.894;2023-05-23T10:34:26;83646.39;;;14.49;33.00
70437;BME280;57877;39.750;-104.894;2023-05-23T10:36:54;83646.38;;;14.96;32.73
70437;BME280;57877;39.750;-104.894;2023-05-23T10:39:18;83650.05;;;14.70;32.83
70437;BME280;57877;39.750;-104.894;2023-05-23T10:41:42;83651.23;;;14.48;32.98
70437;BME280;57877;39.750;-104.894;2023-05-23T10:44:10;83651.47;;;15.23;32.50
70437;BME280;57877;39.750;-104.894;2023-05-23T10:48:56;83648.87;;;14.74;32.66
70437;BME280;57877;39.750;-104.894;2023-05-23T10:51:21;83649.08;;;14.53;32.51
70437;BME280;57877;39.750;-104.894;2023-05-23T10:53:52;83649.44;;;14.44;32.60
70437;BME280;57877;39.750;-104.894;2023-05-23T10:56:18;83649.40;;;14.92;32.41
70437;BME280;57877;39.750;-104.894;2023-05-23T10:58:49;83645.46;;;14.55;32.67
70437;BME280;57877;39.750;-104.894;2023-05-23T11:01:06;83645.01;;;14.81;32.38
70437;BME280;57877;39.750;-104.894;2023-05-23T11:03:32;83647.82;;;14.38;32.51
70437;BME280;57877;39.750;-104.894;2023-05-23T11:05:56;83651.56;;;14.40;32.50
70437;BME280;57877;39.750;-104.894;2023-05-23T11:08:24;83654.21;;;14.52;32.44
70437;BME280;57877;39.750;-104.894;2023-05-23T11:10:52;83656.08;;;14.27;32.70
70437;BME280;57877;39.750;-104.894;2023-05-23T11:13:12;83659.29;;;14.95;32.48
70437;BME280;57877;39.750;-104.894;2023-05-23T11:15:42;83660.23;;;14.79;32.41
70437;BME280;57877;39.750;-104.894;2023-05-23T11:18:06;83661.90;;;14.78;32.47
70437;BME280;57877;39.750;-104.894;2023-05-23T11:20:30;83664.83;;;14.53;32.53
70437;BME280;57877;39.750;-104.894;2023-05-23T11:22:59;83666.09;;;14.41;32.53
70437;BME280;57877;39.750;-104.894;2023-05-23T11:27:49;83665.31;;;14.50;32.47
70437;BME280;57877;39.750;-104.894;2023-05-23T11:30:15;83663.76;;;14.39;32.64
70437;BME280;57877;39.750;-104.894;2023-05-23T11:32:40;83661.69;;;14.36;32.87
70437;BME280;57877;39.750;-104.894;2023-05-23T11:35:07;83662.25;;;14.33;32.82
70437;BME280;57877;39.750;-104.894;2023-05-23T11:37:31;83665.35;;;14.59;32.91
70437;BME280;57877;39.750;-104.894;2023-05-23T11:39:57;83668.60;;;14.14;32.85
70437;BME280;57877;39.750;-104.894;2023-05-23T11:42:22;83675.36;;;14.45;32.88
70437;BME280;57877;39.750;-104.894;2023-05-23T11:44:49;83676.46;;;14.11;32.99
70437;BME280;57877;39.750;-104.894;2023-05-23T11:47:12;83677.48;;;14.46;33.00
70437;BME280;57877;39.750;-104.894;2023-05-23T11:49:38;83676.49;;;14.04;33.28
70437;BME280;57877;39.750;-104.894;2023-05-23T11:52:03;83680.32;;;14.34;33.26
70437;BME280;57877;39.750;-104.894;2023-05-23T11:54:27;83686.75;;;14.45;33.13
70437;BME280;57877;39.750;-104.894;2023-05-23T11:56:52;83691.07;;;14.49;33.15
70437;BME280;57877;39.750;-104.894;2023-05-23T11:59:18;83691.51;;;14.41;33.23
70437;BME280;57877;39.750;-104.894;2023-05-23T12:01:43;83692.85;;;14.59;33.36
70437;BME280;57877;39.750;-104.894;2023-05-23T12:04:10;83691.51;;;14.40;33.08
70437;BME280;57877;39.750;-104.894;2023-05-23T12:06:35;83693.20;;;14.19;33.48
70437;BME280;57877;39.750;-104.894;2023-05-23T12:09:00;83694.89;;;14.15;33.45
70437;BME280;57877;39.750;-104.894;2023-05-23T12:11:25;83698.34;;;14.09;33.29
70437;BME280;57877;39.750;-104.894;2023-05-23T12:13:52;83699.48;;;13.77;33.50
70437;BME280;57877;39.750;-104.894;2023-05-23T12:16:17;83705.70;;;14.23;33.61
70437;BME280;57877;39.750;-104.894;2023-05-23T12:18:42;83709.60;;;14.28;33.24
70437;BME280;57877;39.750;-104.894;2023-05-23T12:21:07;83713.53;;;14.13;33.28
70437;BME280;57877;39.750;-104.894;2023-05-23T12:23:34;83716.02;;;14.19;33.59
70437;BME280;57877;39.750;-104.894;2023-05-23T12:25:59;83715.49;;;13.95;33.76
70437;BME280;57877;39.750;-104.894;2023-05-23T12:30:51;83719.69;;;14.23;33.67